createdAt,value
2018-12-06T00:00:50.393Z,6.90
2018-12-06T00:03:19.036Z,7.00
2018-12-06T00:05:47.381Z,7.00
2018-12-06T00:08:17.861Z,6.90
2018-12-06T00:10:46.423Z,6.90
2018-12-06T00:13:14.779Z,6.90
2018-12-06T00:15:43.307Z,6.80
2018-12-06T00:18:11.790Z,6.80
2018-12-06T00:20:40.324Z,6.90
2018-12-06T00:23:08.835Z,6.80
2018-12-06T00:25:37.596Z,6.80
2018-12-06T00:28:06.085Z,6.80
2018-12-06T00:30:37.588Z,6.80
2018-12-06T00:33:06.046Z,6.90
2018-12-06T00:35:34.499Z,6.90
2018-12-06T00:38:02.988Z,6.80
2018-12-06T00:40:31.629Z,6.80
2018-12-06T00:43:00.140Z,6.90
2018-12-06T00:45:28.628Z,6.80
2018-12-06T00:47:57.180Z,6.80
2018-12-06T00:50:25.644Z,6.60
2018-12-06T00:52:54.325Z,6.60
2018-12-06T00:55:22.984Z,6.50
2018-12-06T00:57:51.474Z,6.40
2018-12-06T01:00:20.126Z,6.50
2018-12-06T01:02:48.632Z,6.50
2018-12-06T01:05:17.188Z,6.50
2018-12-06T01:07:45.832Z,6.60
2018-12-06T01:10:14.502Z,6.70
2018-12-06T01:12:42.895Z,6.70
2018-12-06T01:15:11.530Z,6.80
2018-12-06T01:17:40.035Z,6.80
2018-12-06T01:20:08.547Z,6.80
2018-12-06T01:22:37.027Z,6.70
2018-12-06T01:25:06.337Z,6.70
2018-12-06T01:27:34.976Z,6.70
2018-12-06T01:30:03.621Z,6.70
2018-12-06T01:32:32.184Z,6.80
2018-12-06T01:35:00.730Z,6.70
2018-12-06T01:37:29.208Z,6.70
2018-12-06T01:39:57.653Z,6.80
2018-12-06T01:42:26.370Z,6.80
2018-12-06T01:44:54.800Z,6.80
2018-12-06T01:47:23.432Z,6.80
2018-12-06T01:49:51.884Z,6.80
2018-12-06T01:52:20.556Z,6.80
2018-12-06T01:54:49.151Z,6.80
2018-12-06T01:57:17.973Z,6.80
2018-12-06T01:59:46.563Z,6.80
2018-12-06T02:02:15.154Z,6.90
2018-12-06T02:04:43.644Z,7.00
2018-12-06T02:07:12.321Z,7.10
2018-12-06T02:09:40.857Z,7.20
2018-12-06T02:12:09.439Z,7.20
2018-12-06T02:14:39.058Z,7.10
2018-12-06T02:17:07.772Z,7.10
2018-12-06T02:19:36.257Z,7.00
2018-12-06T02:22:04.737Z,6.90
2018-12-06T02:24:33.227Z,6.90
2018-12-06T02:27:01.703Z,6.90
2018-12-06T02:29:35.675Z,6.90
2018-12-06T02:32:04.366Z,7.00
2018-12-06T02:34:34.058Z,7.00
2018-12-06T02:37:02.500Z,7.00
2018-12-06T02:39:31.053Z,6.90
2018-12-06T02:41:59.569Z,6.90
2018-12-06T02:44:29.545Z,6.80
2018-12-06T02:46:57.961Z,6.90
2018-12-06T02:49:26.394Z,6.90
2018-12-06T02:51:55.088Z,6.80
2018-12-06T02:54:24.985Z,6.60
2018-12-06T02:56:53.589Z,6.60
2018-12-06T02:59:22.102Z,6.60
2018-12-06T03:01:50.595Z,6.50
2018-12-06T03:04:19.148Z,6.60
2018-12-06T03:06:47.667Z,6.70
2018-12-06T03:09:16.201Z,6.70
2018-12-06T03:11:44.741Z,6.80
2018-12-06T03:14:13.203Z,6.80
2018-12-06T03:16:41.820Z,6.90
2018-12-06T03:19:10.337Z,6.90
2018-12-06T03:21:38.924Z,6.90
2018-12-06T03:24:07.544Z,7.00
2018-12-06T03:26:36.323Z,6.90
2018-12-06T03:29:04.874Z,6.90
2018-12-06T03:31:33.559Z,7.00
2018-12-06T03:34:02.046Z,6.90
2018-12-06T03:36:30.661Z,6.80
2018-12-06T03:38:59.240Z,6.70
2018-12-06T03:41:27.689Z,6.70
2018-12-06T03:43:56.259Z,6.80
2018-12-06T03:46:24.659Z,6.70
2018-12-06T03:48:53.375Z,6.70
2018-12-06T03:51:21.858Z,6.70
2018-12-06T03:53:51.900Z,6.70
2018-12-06T03:56:20.394Z,6.80
2018-12-06T03:58:48.856Z,6.80
2018-12-06T04:01:17.333Z,6.80
2018-12-06T04:03:45.769Z,6.80
2018-12-06T04:06:14.543Z,6.70
2018-12-06T04:08:42.973Z,6.80
2018-12-06T04:11:11.505Z,6.70
2018-12-06T04:13:39.848Z,6.80
2018-12-06T04:16:08.299Z,6.80
2018-12-06T04:18:37.055Z,6.80
2018-12-06T04:21:05.394Z,6.80
2018-12-06T04:23:33.856Z,6.70
2018-12-06T04:26:03.160Z,6.80
2018-12-06T04:28:31.569Z,6.90
2018-12-06T04:30:59.906Z,6.90
2018-12-06T04:33:28.371Z,6.90
2018-12-06T04:35:56.804Z,7.00
2018-12-06T04:38:25.115Z,7.00
2018-12-06T04:40:53.463Z,7.10
2018-12-06T04:43:21.964Z,7.30
2018-12-06T04:45:50.301Z,7.30
2018-12-06T04:48:22.125Z,7.30
2018-12-06T04:50:48.960Z,7.30
2018-12-06T04:53:17.400Z,7.30
2018-12-06T04:55:45.735Z,7.30
2018-12-06T04:58:14.084Z,7.20
2018-12-06T05:00:42.409Z,7.10
2018-12-06T05:03:10.824Z,7.00
2018-12-06T05:05:39.173Z,6.80
2018-12-06T05:08:07.520Z,6.90
2018-12-06T05:10:35.863Z,6.90
2018-12-06T05:13:04.212Z,6.90
2018-12-06T05:15:32.532Z,6.90
2018-12-06T05:18:00.893Z,7.00
2018-12-06T05:20:29.225Z,6.90
2018-12-06T05:22:57.624Z,6.90
2018-12-06T05:25:26.184Z,6.90
2018-12-06T05:27:54.526Z,7.00
2018-12-06T05:30:22.853Z,7.00
2018-12-06T05:32:51.194Z,7.00
2018-12-06T05:35:19.551Z,7.00
2018-12-06T05:37:47.908Z,7.00
2018-12-06T05:40:16.245Z,7.00
2018-12-06T05:42:44.743Z,7.00
2018-12-06T05:45:13.088Z,7.00
2018-12-06T05:47:41.532Z,6.90
2018-12-06T05:50:09.948Z,6.90
2018-12-06T05:52:38.308Z,6.90
2018-12-06T05:55:06.638Z,7.00
2018-12-06T05:57:35.013Z,6.90
2018-12-06T06:00:03.920Z,7.00
2018-12-06T06:02:32.299Z,7.00
2018-12-06T06:05:00.756Z,6.80
2018-12-06T06:07:29.127Z,7.00
2018-12-06T06:09:57.451Z,7.00
2018-12-06T06:12:25.814Z,7.00
2018-12-06T06:14:54.265Z,7.00
2018-12-06T06:17:22.632Z,7.10
2018-12-06T06:19:50.969Z,7.00
2018-12-06T06:22:19.418Z,7.00
2018-12-06T06:24:47.751Z,7.00
2018-12-06T06:27:16.083Z,7.00
2018-12-06T06:29:44.444Z,7.00
2018-12-06T06:32:12.785Z,7.00
2018-12-06T06:34:41.147Z,7.00
2018-12-06T06:37:09.897Z,7.00
2018-12-06T06:39:40.830Z,7.10
2018-12-06T06:42:09.153Z,7.10
2018-12-06T06:44:37.519Z,7.10
2018-12-06T06:47:06.052Z,7.10
2018-12-06T06:49:34.462Z,7.10
2018-12-06T06:52:02.781Z,7.10
2018-12-06T06:54:31.162Z,7.10
2018-12-06T06:56:59.584Z,7.20
2018-12-06T06:59:28.105Z,7.20
2018-12-06T07:01:56.437Z,7.20
2018-12-06T07:04:24.758Z,7.20
2018-12-06T07:06:53.173Z,7.20
2018-12-06T07:09:21.562Z,7.20
2018-12-06T07:11:49.901Z,7.30
2018-12-06T07:14:18.328Z,7.20
2018-12-06T07:16:46.665Z,7.20
2018-12-06T07:19:15.038Z,7.20
2018-12-06T07:21:43.366Z,7.30
2018-12-06T07:24:11.724Z,7.30
2018-12-06T07:26:40.169Z,7.30
2018-12-06T07:29:08.636Z,7.30
2018-12-06T07:31:36.988Z,7.30
2018-12-06T07:34:05.394Z,7.40
2018-12-06T07:36:33.726Z,7.40
2018-12-06T07:39:02.112Z,7.40
2018-12-06T07:41:30.436Z,7.80
2018-12-06T07:43:58.808Z,8.00
2018-12-06T07:46:27.151Z,7.90
2018-12-06T07:48:56.805Z,8.20
2018-12-06T07:51:25.155Z,8.30
2018-12-06T07:53:53.607Z,8.50
2018-12-06T07:56:22.020Z,8.60
2018-12-06T07:58:50.457Z,8.70
2018-12-06T08:01:18.871Z,8.70
2018-12-06T08:03:47.296Z,8.70
2018-12-06T08:06:15.677Z,8.60
2018-12-06T08:08:44.004Z,8.60
2018-12-06T08:11:12.375Z,8.60
2018-12-06T08:13:40.729Z,8.60
2018-12-06T08:16:09.177Z,8.30
2018-12-06T08:18:37.736Z,8.20
2018-12-06T08:21:06.112Z,8.10
2018-12-06T08:23:34.492Z,8.10
2018-12-06T08:26:02.891Z,8.10
2018-12-06T08:28:31.223Z,8.10
2018-12-06T08:30:59.669Z,8.10
2018-12-06T08:33:28.000Z,8.10
2018-12-06T08:35:56.405Z,8.10
2018-12-06T08:38:24.744Z,8.10
2018-12-06T08:40:53.177Z,8.10
2018-12-06T08:43:21.586Z,8.10
2018-12-06T08:45:49.909Z,8.20
2018-12-06T08:48:18.379Z,8.30
2018-12-06T08:50:46.728Z,8.30
2018-12-06T08:53:15.074Z,8.30
2018-12-06T08:55:43.479Z,8.20
2018-12-06T08:58:11.820Z,8.20
2018-12-06T09:00:40.172Z,8.20
2018-12-06T09:03:08.550Z,8.30
2018-12-06T09:05:36.923Z,8.50
2018-12-06T09:08:05.400Z,8.60
2018-12-06T09:10:33.859Z,8.70
2018-12-06T09:13:02.589Z,8.80
2018-12-06T09:15:30.911Z,8.80
2018-12-06T09:17:59.317Z,8.90
2018-12-06T09:20:27.669Z,9.00
2018-12-06T09:22:56.004Z,9.10
2018-12-06T09:25:24.648Z,9.20
2018-12-06T09:27:52.978Z,9.20
2018-12-06T09:30:21.414Z,9.20
2018-12-06T09:32:49.868Z,9.20
2018-12-06T09:35:18.218Z,9.40
2018-12-06T09:37:46.595Z,9.50
2018-12-06T09:40:14.933Z,9.60
2018-12-06T09:42:43.288Z,9.80
2018-12-06T09:45:11.716Z,10.00
2018-12-06T09:47:40.096Z,9.90
2018-12-06T09:50:08.417Z,10.10
2018-12-06T09:52:36.832Z,10.10
2018-12-06T09:55:05.512Z,10.20
2018-12-06T09:57:33.861Z,10.20
2018-12-06T10:00:02.248Z,10.30
2018-12-06T10:02:30.704Z,10.30
2018-12-06T10:04:59.159Z,10.30
2018-12-06T10:07:27.514Z,10.40
2018-12-06T10:09:55.881Z,10.40
2018-12-06T10:12:24.223Z,10.50
2018-12-06T10:14:52.605Z,10.50
2018-12-06T10:17:21.027Z,10.60
2018-12-06T10:19:49.397Z,10.60
2018-12-06T10:22:17.781Z,10.60
2018-12-06T10:24:46.254Z,10.60
2018-12-06T10:27:14.688Z,10.70
2018-12-06T10:29:43.078Z,10.80
2018-12-06T10:32:11.469Z,10.90
2018-12-06T10:34:39.820Z,11.10
2018-12-06T10:37:08.150Z,11.20
2018-12-06T10:39:36.512Z,11.30
2018-12-06T10:42:04.941Z,11.30
2018-12-06T10:44:33.279Z,11.30
2018-12-06T10:47:01.690Z,11.20
2018-12-06T10:49:30.036Z,11.20
2018-12-06T10:51:58.425Z,11.10
2018-12-06T10:54:26.784Z,11.10
2018-12-06T10:56:55.106Z,11.00
2018-12-06T10:59:23.495Z,11.10
2018-12-06T11:01:57.164Z,11.10
2018-12-06T11:04:29.791Z,11.20
2018-12-06T11:06:58.213Z,11.10
2018-12-06T11:09:26.584Z,11.20
2018-12-06T11:11:54.960Z,11.20
2018-12-06T11:14:23.317Z,11.20
2018-12-06T11:16:51.704Z,11.20
2018-12-06T11:19:20.039Z,11.20
2018-12-06T11:21:48.523Z,11.20
2018-12-06T11:24:17.118Z,11.30
2018-12-06T11:26:45.505Z,11.30
2018-12-06T11:29:13.985Z,11.20
2018-12-06T11:31:42.376Z,11.30
2018-12-06T11:34:10.731Z,11.50
2018-12-06T11:36:39.113Z,11.40
2018-12-06T11:39:08.700Z,11.30
2018-12-06T11:41:42.965Z,11.50
2018-12-06T11:44:07.393Z,11.50
2018-12-06T11:46:35.855Z,11.60
2018-12-06T11:49:04.234Z,11.50
2018-12-06T11:51:32.768Z,11.60
2018-12-06T11:54:01.112Z,11.70
2018-12-06T11:56:29.424Z,11.60
2018-12-06T11:58:57.846Z,11.60
2018-12-06T12:01:26.195Z,11.60
2018-12-06T12:03:54.685Z,11.70
2018-12-06T12:06:23.116Z,11.90
2018-12-06T12:08:51.491Z,11.90
2018-12-06T12:11:19.828Z,12.10
2018-12-06T12:13:48.208Z,12.00
2018-12-06T12:16:16.599Z,12.00
2018-12-06T12:18:45.115Z,12.00
2018-12-06T12:21:13.474Z,12.10
2018-12-06T12:23:41.902Z,11.90
2018-12-06T12:26:10.256Z,12.00
2018-12-06T12:28:38.640Z,12.10
2018-12-06T12:31:07.512Z,12.10
2018-12-06T12:33:35.863Z,12.10
2018-12-06T12:36:04.217Z,12.00
2018-12-06T12:38:32.685Z,12.10
2018-12-06T12:41:01.346Z,12.20
2018-12-06T12:43:29.713Z,12.10
2018-12-06T12:45:58.092Z,12.20
2018-12-06T12:48:26.425Z,12.10
2018-12-06T12:50:54.787Z,12.20
2018-12-06T12:53:23.169Z,12.20
2018-12-06T12:55:51.579Z,12.10
2018-12-06T12:58:20.120Z,12.00
2018-12-06T13:00:48.458Z,12.20
2018-12-06T13:03:17.256Z,12.10
2018-12-06T13:05:45.712Z,12.20
2018-12-06T13:08:14.230Z,12.20
2018-12-06T13:10:42.576Z,12.10
2018-12-06T13:13:11.064Z,12.20
2018-12-06T13:15:39.412Z,12.10
2018-12-06T13:18:07.771Z,12.30
2018-12-06T13:20:36.147Z,12.60
2018-12-06T13:23:04.669Z,13.10
2018-12-06T13:25:33.017Z,13.20
2018-12-06T13:28:01.384Z,13.40
2018-12-06T13:30:29.717Z,13.60
2018-12-06T13:32:58.383Z,13.80
2018-12-06T13:35:26.708Z,13.70
2018-12-06T13:37:55.050Z,13.60
2018-12-06T13:40:23.447Z,13.40
2018-12-06T13:42:51.759Z,13.10
2018-12-06T13:45:20.128Z,13.00
2018-12-06T13:47:48.532Z,13.00
2018-12-06T13:50:16.869Z,12.90
2018-12-06T13:52:45.196Z,12.80
2018-12-06T13:55:13.676Z,12.70
2018-12-06T13:57:42.023Z,12.70
2018-12-06T14:00:10.553Z,12.60
2018-12-06T14:02:39.037Z,12.60
2018-12-06T14:05:07.497Z,12.60
2018-12-06T14:07:35.986Z,12.50
2018-12-06T14:10:04.572Z,12.60
2018-12-06T14:12:32.908Z,12.50
2018-12-06T14:15:01.403Z,12.50
2018-12-06T14:17:29.776Z,12.40
2018-12-06T14:19:58.203Z,12.50
2018-12-06T14:22:26.613Z,12.50
2018-12-06T14:24:55.587Z,12.50
2018-12-06T14:27:23.941Z,12.50
2018-12-06T14:29:52.400Z,12.40
2018-12-06T14:32:20.885Z,12.40
2018-12-06T14:34:49.264Z,12.40
2018-12-06T14:37:17.612Z,12.40
2018-12-06T14:39:46.024Z,12.40
2018-12-06T14:42:15.521Z,12.30
2018-12-06T14:44:43.940Z,12.30
2018-12-06T14:47:12.435Z,12.30
2018-12-06T14:49:40.777Z,12.30
2018-12-06T14:52:09.167Z,12.30
2018-12-06T14:54:37.552Z,12.30
2018-12-06T14:57:06.051Z,12.30
2018-12-06T14:59:35.383Z,12.30
2018-12-06T15:02:04.076Z,12.20
2018-12-06T15:04:32.436Z,12.20
2018-12-06T15:07:00.767Z,12.10
2018-12-06T15:09:29.165Z,12.00
2018-12-06T15:11:57.534Z,11.90
2018-12-06T15:14:25.954Z,11.90
2018-12-06T15:16:54.641Z,12.00
2018-12-06T15:19:23.073Z,11.90
2018-12-06T15:21:51.438Z,11.80
2018-12-06T15:24:19.856Z,11.80
2018-12-06T15:26:48.254Z,11.70
2018-12-06T15:29:16.616Z,11.60
2018-12-06T15:31:44.943Z,11.50
2018-12-06T15:34:13.500Z,11.50
2018-12-06T15:36:42.567Z,11.30
2018-12-06T15:39:10.908Z,11.30
2018-12-06T15:41:39.439Z,11.30
2018-12-06T15:44:07.787Z,11.50
2018-12-06T15:46:36.147Z,11.40
2018-12-06T15:49:04.538Z,11.30
2018-12-06T15:51:33.014Z,11.10
2018-12-06T15:54:01.368Z,11.00
2018-12-06T15:56:29.802Z,11.20
2018-12-06T15:58:58.130Z,11.30
2018-12-06T16:01:26.460Z,11.30
2018-12-06T16:04:01.905Z,11.40
2018-12-06T16:06:30.268Z,11.40
2018-12-06T16:08:58.639Z,11.40
2018-12-06T16:11:27.151Z,11.40
2018-12-06T16:13:55.510Z,11.30
2018-12-06T16:16:23.856Z,11.40
2018-12-06T16:18:52.380Z,11.30
2018-12-06T16:21:20.856Z,11.30
2018-12-06T16:23:49.234Z,11.30
2018-12-06T16:26:17.607Z,11.40
2018-12-06T16:28:46.009Z,11.40
2018-12-06T16:31:14.356Z,11.30
2018-12-06T16:33:44.079Z,11.30
2018-12-06T16:36:12.432Z,11.40
2018-12-06T16:38:40.777Z,11.50
2018-12-06T16:41:09.412Z,11.60
2018-12-06T16:43:37.757Z,11.60
2018-12-06T16:46:06.101Z,11.70
2018-12-06T16:48:34.589Z,11.60
2018-12-06T16:51:03.050Z,11.70
2018-12-06T16:53:31.566Z,11.60
2018-12-06T16:56:00.065Z,11.70
2018-12-06T16:58:28.830Z,11.60
2018-12-06T17:00:57.620Z,11.70
2018-12-06T17:03:25.973Z,11.70
2018-12-06T17:05:54.375Z,11.60
2018-12-06T17:08:23.135Z,11.60
2018-12-06T17:10:51.582Z,11.50
2018-12-06T17:13:20.017Z,11.60
2018-12-06T17:15:48.434Z,11.60
2018-12-06T17:18:16.759Z,11.60
2018-12-06T17:20:45.131Z,11.60
2018-12-06T17:23:13.461Z,11.50
2018-12-06T17:25:41.915Z,11.50
2018-12-06T17:28:10.297Z,11.60
2018-12-06T17:30:38.769Z,11.60
2018-12-06T17:33:07.116Z,11.50
2018-12-06T17:35:35.825Z,11.50
2018-12-06T17:38:04.343Z,11.60
2018-12-06T17:40:33.811Z,11.60
2018-12-06T17:43:02.185Z,11.60
2018-12-06T17:45:30.550Z,11.60
2018-12-06T17:47:59.184Z,11.60
2018-12-06T17:50:27.942Z,11.60
2018-12-06T17:52:56.720Z,11.60
2018-12-06T17:55:25.516Z,11.60
2018-12-06T17:57:53.880Z,11.60
2018-12-06T18:00:22.776Z,11.60
2018-12-06T18:02:51.268Z,11.60
2018-12-06T18:05:19.616Z,11.60
2018-12-06T18:07:47.967Z,11.60
2018-12-06T18:10:16.660Z,11.60
2018-12-06T18:12:45.104Z,11.70
2018-12-06T18:15:13.480Z,11.60
2018-12-06T18:17:42.122Z,11.60
2018-12-06T18:20:10.519Z,11.60
2018-12-06T18:22:38.869Z,11.60
2018-12-06T18:25:07.373Z,11.60
2018-12-06T18:27:35.725Z,11.60
2018-12-06T18:30:04.825Z,11.60
2018-12-06T18:32:33.276Z,11.60
2018-12-06T18:35:03.101Z,11.50
2018-12-06T18:37:31.518Z,11.50
2018-12-06T18:39:59.932Z,11.50
2018-12-06T18:42:28.365Z,11.60
2018-12-06T18:44:56.723Z,11.60
2018-12-06T18:47:25.219Z,11.50
2018-12-06T18:49:53.882Z,11.50
2018-12-06T18:52:22.663Z,11.50
2018-12-06T18:54:51.417Z,11.50
2018-12-06T18:57:20.076Z,11.60
2018-12-06T18:59:48.954Z,11.60
2018-12-06T19:02:17.368Z,11.50
2018-12-06T19:04:46.063Z,11.60
2018-12-06T19:07:14.466Z,11.60
2018-12-06T19:09:43.179Z,11.60
2018-12-06T19:12:11.921Z,11.60
2018-12-06T19:14:40.330Z,11.50
2018-12-06T19:17:08.952Z,11.60
2018-12-06T19:19:37.758Z,11.60
2018-12-06T19:22:06.204Z,11.50
2018-12-06T19:24:34.863Z,11.50
2018-12-06T19:27:03.300Z,11.60
2018-12-06T19:29:31.784Z,11.60
2018-12-06T19:32:00.155Z,11.60
2018-12-06T19:34:28.549Z,11.60
2018-12-06T19:36:57.151Z,11.50
2018-12-06T19:39:25.698Z,11.60
2018-12-06T19:41:54.165Z,11.70
2018-12-06T19:44:22.926Z,11.60
2018-12-06T19:46:51.612Z,11.60
2018-12-06T19:49:20.717Z,11.60
2018-12-06T19:51:49.096Z,11.60
2018-12-06T19:54:17.593Z,11.60
2018-12-06T19:57:12.675Z,11.60
2018-12-06T19:59:41.454Z,11.60
2018-12-06T20:02:09.839Z,11.60
2018-12-06T20:04:38.345Z,11.60
2018-12-06T20:07:07.201Z,11.50
2018-12-06T20:09:35.624Z,11.50
2018-12-06T20:12:05.092Z,11.50
2018-12-06T20:14:33.769Z,11.60
2018-12-06T20:17:02.147Z,11.60
2018-12-06T20:19:31.751Z,11.60
2018-12-06T20:22:00.632Z,11.60
2018-12-06T20:24:29.529Z,11.60
2018-12-06T20:26:58.323Z,11.60
2018-12-06T20:29:27.104Z,11.60
2018-12-06T20:31:55.555Z,11.60
2018-12-06T20:34:23.945Z,11.60
2018-12-06T20:36:52.336Z,11.60
2018-12-06T20:39:20.704Z,11.60
2018-12-06T20:41:49.260Z,11.60
2018-12-06T20:44:18.216Z,11.60
2018-12-06T20:46:46.648Z,11.70
2018-12-06T20:49:15.253Z,11.70
2018-12-06T20:51:44.000Z,11.60
2018-12-06T20:54:12.362Z,11.60
2018-12-06T20:56:40.706Z,11.60
2018-12-06T20:59:09.096Z,11.60
2018-12-06T21:01:37.441Z,11.60
2018-12-06T21:04:05.857Z,11.60
2018-12-06T21:06:34.428Z,11.60
2018-12-06T21:09:03.252Z,11.60
2018-12-06T21:11:31.636Z,11.60
2018-12-06T21:14:00.190Z,11.60
2018-12-06T21:16:28.564Z,11.60
2018-12-06T21:18:56.936Z,11.60
2018-12-06T21:21:25.317Z,11.60
2018-12-06T21:23:53.815Z,11.60
2018-12-06T21:26:22.369Z,11.60
2018-12-06T21:28:50.748Z,11.60
2018-12-06T21:31:19.272Z,11.60
2018-12-06T21:33:47.669Z,11.60
2018-12-06T21:36:16.041Z,11.70
2018-12-06T21:38:44.432Z,11.70
2018-12-06T21:41:12.968Z,11.70
2018-12-06T21:43:41.360Z,11.60
2018-12-06T21:46:09.748Z,11.70
2018-12-06T21:48:38.184Z,11.60
2018-12-06T21:51:06.511Z,11.70
2018-12-06T21:53:34.873Z,11.60
2018-12-06T21:56:03.316Z,11.60
2018-12-06T21:58:31.656Z,11.60
2018-12-06T22:01:00.034Z,11.60
2018-12-06T22:03:28.465Z,11.60
2018-12-06T22:05:56.824Z,11.60
2018-12-06T22:08:25.149Z,11.60
2018-12-06T22:10:53.640Z,11.70
2018-12-06T22:13:22.088Z,11.70
2018-12-06T22:15:50.468Z,11.70
2018-12-06T22:18:18.812Z,11.70
2018-12-06T22:20:47.207Z,11.70
2018-12-06T22:23:15.556Z,11.70
2018-12-06T22:25:44.066Z,11.80
2018-12-06T22:28:12.399Z,11.80
2018-12-06T22:30:41.372Z,11.80
2018-12-06T22:33:09.809Z,11.80
2018-12-06T22:35:38.147Z,11.80
2018-12-06T22:38:06.539Z,11.80
2018-12-06T22:40:34.864Z,11.80
2018-12-06T22:43:03.401Z,11.80
2018-12-06T22:46:02.670Z,11.90
2018-12-06T22:48:31.089Z,11.80
2018-12-06T22:50:59.597Z,11.80
2018-12-06T22:53:28.023Z,11.80
2018-12-06T22:55:56.344Z,11.80
2018-12-06T22:58:24.856Z,11.90
2018-12-06T23:00:54.564Z,11.80
2018-12-06T23:03:23.156Z,11.90
2018-12-06T23:05:52.815Z,12.00
2018-12-06T23:08:21.262Z,12.00
2018-12-06T23:10:49.665Z,12.00
2018-12-06T23:13:18.012Z,12.00
2018-12-06T23:15:46.360Z,12.00
2018-12-06T23:18:14.771Z,12.00
2018-12-06T23:20:43.117Z,11.90
2018-12-06T23:23:11.470Z,11.90
2018-12-06T23:25:39.894Z,11.90
2018-12-06T23:28:08.448Z,11.90
2018-12-06T23:30:36.780Z,12.00
2018-12-06T23:33:05.282Z,12.00
2018-12-06T23:35:33.644Z,12.00
2018-12-06T23:38:01.996Z,12.00
2018-12-06T23:40:30.480Z,12.00
2018-12-06T23:42:58.849Z,12.00
2018-12-06T23:45:27.172Z,12.00
2018-12-06T23:47:55.736Z,12.00
2018-12-06T23:50:24.068Z,12.00
2018-12-06T23:52:52.427Z,12.00
2018-12-06T23:55:21.914Z,12.00
2018-12-06T23:57:50.288Z,12.00
